sensor_id;sensor_type;location;lat;lon;timestamp;P1;durP1;ratioP1;P2;durP2;ratioP2
21420;SDS011;10871;50.144;8.428;2024-02-26T00:01:47;2.13;;;1.30;;
21420;SDS011;10871;50.144;8.428;2024-02-26T00:04:14;1.85;;;1.08;;
21420;SDS011;10871;50.144;8.428;2024-02-26T00:06:41;2.15;;;0.90;;
21420;SDS011;10871;50.144;8.428;2024-02-26T00:09:08;2.08;;;1.50;;
21420;SDS011;10871;50.144;8.428;2024-02-26T00:11:37;2.88;;;1.60;;
21420;SDS011;10871;50.144;8.428;2024-02-26T00:14:04;1.55;;;1.25;;
21420;SDS011;10871;50.144;8.428;2024-02-26T00:16:31;2.35;;;1.10;;
21420;SDS011;10871;50.144;8.428;2024-02-26T00:18:58;2.70;;;1.15;;
21420;SDS011;10871;50.144;8.428;2024-02-26T00:21:24;2.00;;;1.48;;
21420;SDS011;10871;50.144;8.428;2024-02-26T00:23:52;2.03;;;1.30;;
21420;SDS011;10871;50.144;8.428;2024-02-26T00:26:19;1.42;;;1.27;;
21420;SDS011;10871;50.144;8.428;2024-02-26T00:28:45;2.55;;;1.40;;
21420;SDS011;10871;50.144;8.428;2024-02-26T00:31:12;3.22;;;1.42;;
21420;SDS011;10871;50.144;8.428;2024-02-26T00:33:39;1.55;;;1.27;;
21420;SDS011;10871;50.144;8.428;2024-02-26T00:36:06;2.05;;;1.27;;
21420;SDS011;10871;50.144;8.428;2024-02-26T00:38:32;1.73;;;1.40;;
21420;SDS011;10871;50.144;8.428;2024-02-26T00:40:59;2.72;;;1.50;;
21420;SDS011;10871;50.144;8.428;2024-02-26T00:43:26;1.33;;;1.23;;
21420;SDS011;10871;50.144;8.428;2024-02-26T00:45:53;2.22;;;1.30;;
21420;SDS011;10871;50.144;8.428;2024-02-26T00:48:19;1.25;;;1.15;;
21420;SDS011;10871;50.144;8.428;2024-02-26T00:50:46;2.90;;;1.50;;
21420;SDS011;10871;50.144;8.428;2024-02-26T00:53:12;1.60;;;1.40;;
21420;SDS011;10871;50.144;8.428;2024-02-26T00:55:39;1.77;;;1.25;;
21420;SDS011;10871;50.144;8.428;2024-02-26T00:58:05;1.63;;;1.23;;
21420;SDS011;10871;50.144;8.428;2024-02-26T01:00:32;1.70;;;1.40;;
21420;SDS011;10871;50.144;8.428;2024-02-26T01:02:58;1.30;;;1.20;;
21420;SDS011;10871;50.144;8.428;2024-02-26T01:05:26;3.50;;;1.30;;
21420;SDS011;10871;50.144;8.428;2024-02-26T01:07:53;1.65;;;1.40;;
21420;SDS011;10871;50.144;8.428;2024-02-26T01:10:20;3.15;;;1.80;;
21420;SDS011;10871;50.144;8.428;2024-02-26T01:12:46;1.50;;;1.40;;
21420;SDS011;10871;50.144;8.428;2024-02-26T01:15:14;1.70;;;1.40;;
21420;SDS011;10871;50.144;8.428;2024-02-26T01:17:41;2.90;;;1.40;;
21420;SDS011;10871;50.144;8.428;2024-02-26T01:20:08;2.40;;;1.80;;
21420;SDS011;10871;50.144;8.428;2024-02-26T01:22:35;2.30;;;1.33;;
21420;SDS011;10871;50.144;8.428;2024-02-26T01:25:02;1.88;;;1.40;;
21420;SDS011;10871;50.144;8.428;2024-02-26T01:27:28;3.13;;;1.52;;
21420;SDS011;10871;50.144;8.428;2024-02-26T01:29:55;2.08;;;1.35;;
21420;SDS011;10871;50.144;8.428;2024-02-26T01:32:22;1.48;;;1.27;;
21420;SDS011;10871;50.144;8.428;2024-02-26T01:34:48;2.22;;;1.48;;
21420;SDS011;10871;50.144;8.428;2024-02-26T01:37:15;1.88;;;1.25;;
21420;SDS011;10871;50.144;8.428;2024-02-26T01:39:42;1.58;;;1.35;;
21420;SDS011;10871;50.144;8.428;2024-02-26T01:42:08;2.13;;;1.40;;
21420;SDS011;10871;50.144;8.428;2024-02-26T01:44:35;2.45;;;1.55;;
21420;SDS011;10871;50.144;8.428;2024-02-26T01:47:02;2.08;;;1.40;;
21420;SDS011;10871;50.144;8.428;2024-02-26T01:49:29;1.60;;;1.20;;
21420;SDS011;10871;50.144;8.428;2024-02-26T01:51:56;2.08;;;1.33;;
21420;SDS011;10871;50.144;8.428;2024-02-26T01:54:23;3.65;;;1.40;;
21420;SDS011;10871;50.144;8.428;2024-02-26T01:56:50;1.95;;;1.50;;
21420;SDS011;10871;50.144;8.428;2024-02-26T01:59:17;3.10;;;1.30;;
21420;SDS011;10871;50.144;8.428;2024-02-26T02:01:44;1.95;;;1.42;;
21420;SDS011;10871;50.144;8.428;2024-02-26T02:04:11;3.17;;;1.42;;
21420;SDS011;10871;50.144;8.428;2024-02-26T02:06:38;2.35;;;1.30;;
21420;SDS011;10871;50.144;8.428;2024-02-26T02:09:05;1.65;;;1.33;;
21420;SDS011;10871;50.144;8.428;2024-02-26T02:11:34;1.63;;;1.20;;
21420;SDS011;10871;50.144;8.428;2024-02-26T02:14:01;1.65;;;1.35;;
21420;SDS011;10871;50.144;8.428;2024-02-26T02:16:27;1.80;;;1.50;;
21420;SDS011;10871;50.144;8.428;2024-02-26T02:18:54;2.58;;;1.45;;
21420;SDS011;10871;50.144;8.428;2024-02-26T02:21:20;3.05;;;1.52;;
21420;SDS011;10871;50.144;8.428;2024-02-26T02:23:47;2.15;;;1.48;;
21420;SDS011;10871;50.144;8.428;2024-02-26T02:26:15;1.80;;;1.45;;
21420;SDS011;10871;50.144;8.428;2024-02-26T02:28:42;2.45;;;1.73;;
21420;SDS011;10871;50.144;8.428;2024-02-26T02:31:09;2.45;;;1.70;;
21420;SDS011;10871;50.144;8.428;2024-02-26T02:33:36;2.03;;;1.40;;
21420;SDS011;10871;50.144;8.428;2024-02-26T02:36:04;2.13;;;1.70;;
21420;SDS011;10871;50.144;8.428;2024-02-26T02:38:31;2.08;;;1.38;;
21420;SDS011;10871;50.144;8.428;2024-02-26T02:40:58;3.10;;;1.90;;
21420;SDS011;10871;50.144;8.428;2024-02-26T02:43:24;5.47;;;1.98;;
21420;SDS011;10871;50.144;8.428;2024-02-26T02:45:53;2.05;;;1.30;;
21420;SDS011;10871;50.144;8.428;2024-02-26T02:48:20;2.60;;;1.73;;
21420;SDS011;10871;50.144;8.428;2024-02-26T02:50:47;1.60;;;1.50;;
21420;SDS011;10871;50.144;8.428;2024-02-26T02:53:13;2.97;;;1.70;;
21420;SDS011;10871;50.144;8.428;2024-02-26T02:55:40;2.95;;;1.60;;
21420;SDS011;10871;50.144;8.428;2024-02-26T02:58:06;2.45;;;1.90;;
21420;SDS011;10871;50.144;8.428;2024-02-26T03:00:33;2.97;;;1.70;;
21420;SDS011;10871;50.144;8.428;2024-02-26T03:03:01;2.80;;;1.75;;
21420;SDS011;10871;50.144;8.428;2024-02-26T03:05:27;2.22;;;1.73;;
21420;SDS011;10871;50.144;8.428;2024-02-26T03:07:54;3.33;;;1.80;;
21420;SDS011;10871;50.144;8.428;2024-02-26T03:10:20;4.15;;;2.00;;
21420;SDS011;10871;50.144;8.428;2024-02-26T03:12:47;2.47;;;1.65;;
21420;SDS011;10871;50.144;8.428;2024-02-26T03:15:13;2.20;;;1.60;;
21420;SDS011;10871;50.144;8.428;2024-02-26T03:17:40;3.45;;;1.77;;
21420;SDS011;10871;50.144;8.428;2024-02-26T03:20:07;3.50;;;1.67;;
21420;SDS011;10871;50.144;8.428;2024-02-26T03:22:34;2.47;;;1.77;;
21420;SDS011;10871;50.144;8.428;2024-02-26T03:25:01;2.30;;;1.80;;
21420;SDS011;10871;50.144;8.428;2024-02-26T03:27:27;4.32;;;1.70;;
21420;SDS011;10871;50.144;8.428;2024-02-26T03:29:54;2.00;;;1.80;;
21420;SDS011;10871;50.144;8.428;2024-02-26T03:32:20;2.60;;;1.65;;
21420;SDS011;10871;50.144;8.428;2024-02-26T03:34:47;2.17;;;1.95;;
21420;SDS011;10871;50.144;8.428;2024-02-26T03:37:14;3.97;;;2.67;;
21420;SDS011;10871;50.144;8.428;2024-02-26T03:39:41;4.00;;;1.90;;
21420;SDS011;10871;50.144;8.428;2024-02-26T03:42:08;3.00;;;2.13;;
21420;SDS011;10871;50.144;8.428;2024-02-26T03:44:34;2.97;;;1.90;;
21420;SDS011;10871;50.144;8.428;2024-02-26T03:47:01;2.42;;;2.03;;
21420;SDS011;10871;50.144;8.428;2024-02-26T03:49:27;3.13;;;1.90;;
21420;SDS011;10871;50.144;8.428;2024-02-26T03:51:54;2.80;;;1.90;;
21420;SDS011;10871;50.144;8.428;2024-02-26T03:54:20;2.17;;;1.85;;
21420;SDS011;10871;50.144;8.428;2024-02-26T03:56:47;2.45;;;1.90;;
21420;SDS011;10871;50.144;8.428;2024-02-26T03:59:14;2.28;;;1.70;;
21420;SDS011;10871;50.144;8.428;2024-02-26T04:01:47;3.25;;;1.90;;
21420;SDS011;10871;50.144;8.428;2024-02-26T04:04:14;2.55;;;1.98;;
21420;SDS011;10871;50.144;8.428;2024-02-26T04:06:43;3.78;;;2.00;;
21420;SDS011;10871;50.144;8.428;2024-02-26T04:09:10;2.28;;;1.98;;
21420;SDS011;10871;50.144;8.428;2024-02-26T04:11:37;2.60;;;2.10;;
21420;SDS011;10871;50.144;8.428;2024-02-26T04:14:03;3.67;;;2.05;;
21420;SDS011;10871;50.144;8.428;2024-02-26T04:16:30;2.83;;;2.08;;
21420;SDS011;10871;50.144;8.428;2024-02-26T04:18:56;3.55;;;1.92;;
21420;SDS011;10871;50.144;8.428;2024-02-26T04:21:23;3.17;;;2.45;;
21420;SDS011;10871;50.144;8.428;2024-02-26T04:23:49;3.35;;;2.25;;
21420;SDS011;10871;50.144;8.428;2024-02-26T04:26:17;4.18;;;2.83;;
21420;SDS011;10871;50.144;8.428;2024-02-26T04:28:43;4.45;;;2.42;;
21420;SDS011;10871;50.144;8.428;2024-02-26T04:31:10;4.97;;;2.15;;
21420;SDS011;10871;50.144;8.428;2024-02-26T04:33:37;4.25;;;2.50;;
21420;SDS011;10871;50.144;8.428;2024-02-26T04:36:04;3.90;;;2.50;;
21420;SDS011;10871;50.144;8.428;2024-02-26T04:38:30;4.28;;;2.47;;
21420;SDS011;10871;50.144;8.428;2024-02-26T04:40:57;3.58;;;2.42;;
21420;SDS011;10871;50.144;8.428;2024-02-26T04:43:24;3.42;;;2.30;;
21420;SDS011;10871;50.144;8.428;2024-02-26T04:45:51;4.70;;;2.65;;
21420;SDS011;10871;50.144;8.428;2024-02-26T04:48:18;3.10;;;2.38;;
21420;SDS011;10871;50.144;8.428;2024-02-26T04:50:45;3.63;;;2.78;;
21420;SDS011;10871;50.144;8.428;2024-02-26T04:53:12;5.20;;;2.60;;
21420;SDS011;10871;50.144;8.428;2024-02-26T04:55:39;4.38;;;2.83;;
21420;SDS011;10871;50.144;8.428;2024-02-26T04:58:05;2.78;;;2.40;;
21420;SDS011;10871;50.144;8.428;2024-02-26T05:00:33;5.07;;;3.00;;
21420;SDS011;10871;50.144;8.428;2024-02-26T05:03:00;8.57;;;3.17;;
21420;SDS011;10871;50.144;8.428;2024-02-26T05:05:27;3.38;;;2.55;;
21420;SDS011;10871;50.144;8.428;2024-02-26T05:07:53;3.95;;;2.92;;
21420;SDS011;10871;50.144;8.428;2024-02-26T05:10:20;5.43;;;2.80;;
21420;SDS011;10871;50.144;8.428;2024-02-26T05:12:46;4.97;;;3.38;;
21420;SDS011;10871;50.144;8.428;2024-02-26T05:15:13;3.65;;;2.80;;
21420;SDS011;10871;50.144;8.428;2024-02-26T05:17:44;3.22;;;2.60;;
21420;SDS011;10871;50.144;8.428;2024-02-26T05:20:11;4.20;;;3.08;;
21420;SDS011;10871;50.144;8.428;2024-02-26T05:22:38;4.18;;;2.70;;
21420;SDS011;10871;50.144;8.428;2024-02-26T05:25:05;4.72;;;3.38;;
21420;SDS011;10871;50.144;8.428;2024-02-26T05:27:31;7.18;;;2.90;;
21420;SDS011;10871;50.144;8.428;2024-02-26T05:29:58;3.97;;;3.03;;
21420;SDS011;10871;50.144;8.428;2024-02-26T05:32:24;3.35;;;3.00;;
21420;SDS011;10871;50.144;8.428;2024-02-26T05:34:51;4.43;;;3.17;;
21420;SDS011;10871;50.144;8.428;2024-02-26T05:37:18;3.95;;;3.00;;
21420;SDS011;10871;50.144;8.428;2024-02-26T05:39:44;4.38;;;3.22;;
21420;SDS011;10871;50.144;8.428;2024-02-26T05:42:11;5.82;;;3.22;;
21420;SDS011;10871;50.144;8.428;2024-02-26T05:44:38;4.65;;;3.00;;
21420;SDS011;10871;50.144;8.428;2024-02-26T05:47:04;3.60;;;3.08;;
21420;SDS011;10871;50.144;8.428;2024-02-26T05:49:32;5.38;;;3.70;;
21420;SDS011;10871;50.144;8.428;2024-02-26T05:52:00;6.55;;;3.53;;
21420;SDS011;10871;50.144;8.428;2024-02-26T05:54:26;6.60;;;3.55;;
21420;SDS011;10871;50.144;8.428;2024-02-26T05:56:53;4.25;;;3.75;;
21420;SDS011;10871;50.144;8.428;2024-02-26T05:59:20;6.10;;;3.38;;
21420;SDS011;10871;50.144;8.428;2024-02-26T06:01:46;3.55;;;3.10;;
21420;SDS011;10871;50.144;8.428;2024-02-26T06:04:13;5.47;;;3.97;;
21420;SDS011;10871;50.144;8.428;2024-02-26T06:06:39;5.90;;;3.95;;
21420;SDS011;10871;50.144;8.428;2024-02-26T06:09:09;5.57;;;3.70;;
21420;SDS011;10871;50.144;8.428;2024-02-26T06:11:37;5.90;;;3.83;;
21420;SDS011;10871;50.144;8.428;2024-02-26T06:14:03;4.57;;;3.70;;
21420;SDS011;10871;50.144;8.428;2024-02-26T06:16:30;6.10;;;4.13;;
21420;SDS011;10871;50.144;8.428;2024-02-26T06:18:57;5.68;;;4.10;;
21420;SDS011;10871;50.144;8.428;2024-02-26T06:21:26;6.28;;;4.00;;
21420;SDS011;10871;50.144;8.428;2024-02-26T06:23:53;5.25;;;3.70;;
21420;SDS011;10871;50.144;8.428;2024-02-26T06:26:19;5.38;;;4.22;;
21420;SDS011;10871;50.144;8.428;2024-02-26T06:28:46;5.47;;;4.40;;
21420;SDS011;10871;50.144;8.428;2024-02-26T06:31:12;6.65;;;4.07;;
21420;SDS011;10871;50.144;8.428;2024-02-26T06:33:39;6.43;;;4.40;;
21420;SDS011;10871;50.144;8.428;2024-02-26T06:36:06;5.82;;;3.95;;
21420;SDS011;10871;50.144;8.428;2024-02-26T06:38:33;5.65;;;4.40;;
21420;SDS011;10871;50.144;8.428;2024-02-26T06:40:59;6.63;;;5.07;;
21420;SDS011;10871;50.144;8.428;2024-02-26T06:43:26;6.57;;;5.32;;
21420;SDS011;10871;50.144;8.428;2024-02-26T06:45:53;9.90;;;6.15;;
21420;SDS011;10871;50.144;8.428;2024-02-26T06:48:19;7.22;;;5.10;;
21420;SDS011;10871;50.144;8.428;2024-02-26T06:50:46;7.32;;;4.70;;
21420;SDS011;10871;50.144;8.428;2024-02-26T06:53:14;7.00;;;4.50;;
21420;SDS011;10871;50.144;8.428;2024-02-26T06:55:40;6.18;;;4.70;;
21420;SDS011;10871;50.144;8.428;2024-02-26T06:58:07;5.80;;;4.93;;
21420;SDS011;10871;50.144;8.428;2024-02-26T07:00:35;6.57;;;5.43;;
21420;SDS011;10871;50.144;8.428;2024-02-26T07:03:02;6.85;;;5.15;;
21420;SDS011;10871;50.144;8.428;2024-02-26T07:05:28;6.18;;;5.00;;
21420;SDS011;10871;50.144;8.428;2024-02-26T07:07:55;8.35;;;5.32;;
21420;SDS011;10871;50.144;8.428;2024-02-26T07:10:22;7.97;;;5.15;;
21420;SDS011;10871;50.144;8.428;2024-02-26T07:12:50;9.55;;;5.70;;
21420;SDS011;10871;50.144;8.428;2024-02-26T07:15:16;5.90;;;4.57;;
21420;SDS011;10871;50.144;8.428;2024-02-26T07:17:43;7.15;;;4.60;;
21420;SDS011;10871;50.144;8.428;2024-02-26T07:20:13;6.95;;;4.90;;
21420;SDS011;10871;50.144;8.428;2024-02-26T07:22:43;6.57;;;4.40;;
21420;SDS011;10871;50.144;8.428;2024-02-26T07:25:09;6.22;;;4.55;;
21420;SDS011;10871;50.144;8.428;2024-02-26T07:27:39;7.85;;;5.50;;
21420;SDS011;10871;50.144;8.428;2024-02-26T07:30:06;7.13;;;4.93;;
21420;SDS011;10871;50.144;8.428;2024-02-26T07:32:35;5.88;;;3.80;;
21420;SDS011;10871;50.144;8.428;2024-02-26T07:35:02;6.05;;;4.97;;
21420;SDS011;10871;50.144;8.428;2024-02-26T07:37:29;6.47;;;4.40;;
21420;SDS011;10871;50.144;8.428;2024-02-26T07:39:55;7.18;;;4.35;;
21420;SDS011;10871;50.144;8.428;2024-02-26T07:42:22;7.57;;;4.50;;
21420;SDS011;10871;50.144;8.428;2024-02-26T07:44:49;8.63;;;4.32;;
21420;SDS011;10871;50.144;8.428;2024-02-26T07:47:19;7.45;;;4.50;;
21420;SDS011;10871;50.144;8.428;2024-02-26T07:49:45;6.90;;;4.47;;
21420;SDS011;10871;50.144;8.428;2024-02-26T07:52:12;6.35;;;4.70;;
21420;SDS011;10871;50.144;8.428;2024-02-26T07:54:38;7.25;;;4.40;;
21420;SDS011;10871;50.144;8.428;2024-02-26T07:57:05;6.95;;;4.38;;
21420;SDS011;10871;50.144;8.428;2024-02-26T07:59:32;6.82;;;4.38;;
21420;SDS011;10871;50.144;8.428;2024-02-26T08:01:59;8.32;;;4.68;;
21420;SDS011;10871;50.144;8.428;2024-02-26T08:04:27;6.35;;;3.80;;
21420;SDS011;10871;50.144;8.428;2024-02-26T08:06:53;7.10;;;4.57;;
21420;SDS011;10871;50.144;8.428;2024-02-26T08:09:20;7.45;;;4.30;;
21420;SDS011;10871;50.144;8.428;2024-02-26T08:11:47;7.88;;;4.30;;
21420;SDS011;10871;50.144;8.428;2024-02-26T08:14:13;5.10;;;3.65;;
21420;SDS011;10871;50.144;8.428;2024-02-26T08:16:41;6.30;;;4.18;;
21420;SDS011;10871;50.144;8.428;2024-02-26T08:19:08;7.20;;;4.35;;
21420;SDS011;10871;50.144;8.428;2024-02-26T08:21:36;6.15;;;4.05;;
21420;SDS011;10871;50.144;8.428;2024-02-26T08:24:03;6.03;;;4.40;;
21420;SDS011;10871;50.144;8.428;2024-02-26T08:26:31;6.90;;;3.90;;
21420;SDS011;10871;50.144;8.428;2024-02-26T08:29:01;7.15;;;4.50;;
21420;SDS011;10871;50.144;8.428;2024-02-26T08:31:28;10.07;;;4.40;;
21420;SDS011;10871;50.144;8.428;2024-02-26T08:33:56;6.70;;;4.50;;
21420;SDS011;10871;50.144;8.428;2024-02-26T08:36:24;7.00;;;4.20;;
21420;SDS011;10871;50.144;8.428;2024-02-26T08:38:51;4.95;;;4.13;;
21420;SDS011;10871;50.144;8.428;2024-02-26T08:41:18;6.43;;;4.32;;
21420;SDS011;10871;50.144;8.428;2024-02-26T08:43:44;6.93;;;4.22;;
21420;SDS011;10871;50.144;8.428;2024-02-26T08:46:12;5.38;;;4.10;;
21420;SDS011;10871;50.144;8.428;2024-02-26T08:48:39;7.40;;;4.45;;
21420;SDS011;10871;50.144;8.428;2024-02-26T08:51:06;5.43;;;4.40;;
21420;SDS011;10871;50.144;8.428;2024-02-26T08:53:33;6.70;;;4.60;;
21420;SDS011;10871;50.144;8.428;2024-02-26T08:56:11;8.07;;;4.70;;
21420;SDS011;10871;50.144;8.428;2024-02-26T08:58:44;7.30;;;4.35;;
21420;SDS011;10871;50.144;8.428;2024-02-26T09:01:12;7.65;;;5.35;;
21420;SDS011;10871;50.144;8.428;2024-02-26T09:03:39;9.50;;;5.10;;
21420;SDS011;10871;50.144;8.428;2024-02-26T09:06:06;7.93;;;5.22;;
21420;SDS011;10871;50.144;8.428;2024-02-26T09:08:36;7.80;;;4.88;;
21420;SDS011;10871;50.144;8.428;2024-02-26T09:11:03;7.18;;;4.75;;
21420;SDS011;10871;50.144;8.428;2024-02-26T09:13:29;7.72;;;5.05;;
21420;SDS011;10871;50.144;8.428;2024-02-26T09:15:56;8.20;;;5.18;;
21420;SDS011;10871;50.144;8.428;2024-02-26T09:18:23;7.50;;;5.00;;
21420;SDS011;10871;50.144;8.428;2024-02-26T09:20:50;9.32;;;5.55;;
21420;SDS011;10871;50.144;8.428;2024-02-26T09:23:17;8.85;;;5.32;;
21420;SDS011;10871;50.144;8.428;2024-02-26T09:25:44;9.65;;;5.35;;
21420;SDS011;10871;50.144;8.428;2024-02-26T09:28:10;7.35;;;5.20;;
21420;SDS011;10871;50.144;8.428;2024-02-26T09:30:37;9.57;;;5.25;;
21420;SDS011;10871;50.144;8.428;2024-02-26T09:33:05;8.82;;;5.22;;
21420;SDS011;10871;50.144;8.428;2024-02-26T09:35:31;8.00;;;5.13;;
21420;SDS011;10871;50.144;8.428;2024-02-26T09:37:57;9.10;;;5.40;;
21420;SDS011;10871;50.144;8.428;2024-02-26T09:40:24;8.05;;;5.72;;
21420;SDS011;10871;50.144;8.428;2024-02-26T09:42:51;7.32;;;5.53;;
21420;SDS011;10871;50.144;8.428;2024-02-26T09:45:19;7.35;;;5.40;;
21420;SDS011;10871;50.144;8.428;2024-02-26T09:47:48;9.85;;;5.25;;
21420;SDS011;10871;50.144;8.428;2024-02-26T09:50:16;8.75;;;5.57;;
21420;SDS011;10871;50.144;8.428;2024-02-26T09:52:44;8.80;;;5.68;;
21420;SDS011;10871;50.144;8.428;2024-02-26T09:55:11;7.15;;;5.03;;
21420;SDS011;10871;50.144;8.428;2024-02-26T09:57:38;6.82;;;5.03;;
21420;SDS011;10871;50.144;8.428;2024-02-26T10:00:06;9.30;;;5.70;;
21420;SDS011;10871;50.144;8.428;2024-02-26T10:02:35;9.02;;;5.90;;
21420;SDS011;10871;50.144;8.428;2024-02-26T10:05:03;9.90;;;5.80;;
21420;SDS011;10871;50.144;8.428;2024-02-26T10:07:33;9.55;;;6.35;;
21420;SDS011;10871;50.144;8.428;2024-02-26T10:10:01;7.80;;;5.57;;
21420;SDS011;10871;50.144;8.428;2024-02-26T10:12:28;8.88;;;5.68;;
21420;SDS011;10871;50.144;8.428;2024-02-26T10:14:56;8.45;;;5.53;;
21420;SDS011;10871;50.144;8.428;2024-02-26T10:17:22;9.27;;;5.60;;
21420;SDS011;10871;50.144;8.428;2024-02-26T10:19:49;8.30;;;5.88;;
21420;SDS011;10871;50.144;8.428;2024-02-26T10:22:18;9.65;;;5.75;;
21420;SDS011;10871;50.144;8.428;2024-02-26T10:24:46;10.65;;;6.57;;
21420;SDS011;10871;50.144;8.428;2024-02-26T10:27:13;10.93;;;6.38;;
21420;SDS011;10871;50.144;8.428;2024-02-26T10:29:40;10.00;;;6.40;;
21420;SDS011;10871;50.144;8.428;2024-02-26T10:32:11;8.77;;;5.60;;
21420;SDS011;10871;50.144;8.428;2024-02-26T10:34:39;8.52;;;5.82;;
21420;SDS011;10871;50.144;8.428;2024-02-26T10:37:09;7.95;;;5.20;;
21420;SDS011;10871;50.144;8.428;2024-02-26T10:39:36;12.18;;;5.40;;
21420;SDS011;10871;50.144;8.428;2024-02-26T10:42:03;8.27;;;5.40;;
21420;SDS011;10871;50.144;8.428;2024-02-26T10:44:35;10.60;;;5.35;;
21420;SDS011;10871;50.144;8.428;2024-02-26T10:47:02;10.80;;;5.50;;
21420;SDS011;10871;50.144;8.428;2024-02-26T10:49:29;12.02;;;5.65;;
21420;SDS011;10871;50.144;8.428;2024-02-26T10:51:56;7.97;;;5.07;;
21420;SDS011;10871;50.144;8.428;2024-02-26T10:54:25;8.70;;;4.85;;
21420;SDS011;10871;50.144;8.428;2024-02-26T10:56:53;8.75;;;5.55;;
21420;SDS011;10871;50.144;8.428;2024-02-26T10:59:20;5.93;;;4.63;;
21420;SDS011;10871;50.144;8.428;2024-02-26T11:01:48;8.38;;;4.28;;
21420;SDS011;10871;50.144;8.428;2024-02-26T11:04:16;8.43;;;5.05;;
21420;SDS011;10871;50.144;8.428;2024-02-26T11:06:44;6.15;;;4.53;;
21420;SDS011;10871;50.144;8.428;2024-02-26T11:09:13;7.38;;;4.85;;
21420;SDS011;10871;50.144;8.428;2024-02-26T11:11:40;6.43;;;4.60;;
21420;SDS011;10871;50.144;8.428;2024-02-26T11:14:08;6.32;;;4.55;;
21420;SDS011;10871;50.144;8.428;2024-02-26T11:16:35;6.45;;;4.65;;
21420;SDS011;10871;50.144;8.428;2024-02-26T11:19:08;8.07;;;4.25;;
21420;SDS011;10871;50.144;8.428;2024-02-26T11:21:37;6.50;;;4.60;;
21420;SDS011;10871;50.144;8.428;2024-02-26T11:24:08;7.75;;;4.38;;
21420;SDS011;10871;50.144;8.428;2024-02-26T11:26:37;4.93;;;4.25;;
21420;SDS011;10871;50.144;8.428;2024-02-26T11:29:07;6.72;;;4.70;;
21420;SDS011;10871;50.144;8.428;2024-02-26T11:31:34;5.95;;;4.28;;
21420;SDS011;10871;50.144;8.428;2024-02-26T11:34:03;6.05;;;4.45;;
21420;SDS011;10871;50.144;8.428;2024-02-26T11:36:30;6.22;;;4.40;;
21420;SDS011;10871;50.144;8.428;2024-02-26T11:38:56;7.50;;;4.90;;
21420;SDS011;10871;50.144;8.428;2024-02-26T11:41:23;7.18;;;4.63;;
21420;SDS011;10871;50.144;8.428;2024-02-26T11:44:09;6.45;;;4.32;;
21420;SDS011;10871;50.144;8.428;2024-02-26T11:46:39;7.82;;;4.22;;
21420;SDS011;10871;50.144;8.428;2024-02-26T11:51:54;6.00;;;4.65;;
21420;SDS011;10871;50.144;8.428;2024-02-26T11:59:55;5.53;;;4.45;;
21420;SDS011;10871;50.144;8.428;2024-02-26T12:05:14;6.45;;;4.50;;
21420;SDS011;10871;50.144;8.428;2024-02-26T12:07:49;7.53;;;4.93;;
21420;SDS011;10871;50.144;8.428;2024-02-26T12:10:21;6.10;;;4.57;;
21420;SDS011;10871;50.144;8.428;2024-02-26T12:12:58;7.15;;;4.60;;
21420;SDS011;10871;50.144;8.428;2024-02-26T12:15:30;5.78;;;4.53;;
21420;SDS011;10871;50.144;8.428;2024-02-26T12:17:57;6.28;;;4.53;;
21420;SDS011;10871;50.144;8.428;2024-02-26T12:20:24;6.55;;;4.40;;
21420;SDS011;10871;50.144;8.428;2024-02-26T12:23:03;8.38;;;4.90;;
21420;SDS011;10871;50.144;8.428;2024-02-26T12:25:33;8.55;;;4.95;;
21420;SDS011;10871;50.144;8.428;2024-02-26T12:27:59;6.05;;;4.78;;
21420;SDS011;10871;50.144;8.428;2024-02-26T12:30:26;7.22;;;4.38;;
21420;SDS011;10871;50.144;8.428;2024-02-26T12:32:59;6.57;;;5.00;;
21420;SDS011;10871;50.144;8.428;2024-02-26T12:35:27;8.25;;;4.40;;
21420;SDS011;10871;50.144;8.428;2024-02-26T12:37:55;6.80;;;5.05;;
21420;SDS011;10871;50.144;8.428;2024-02-26T12:40:22;5.97;;;4.72;;
21420;SDS011;10871;50.144;8.428;2024-02-26T12:42:49;7.57;;;5.28;;
21420;SDS011;10871;50.144;8.428;2024-02-26T12:45:16;7.07;;;5.32;;
21420;SDS011;10871;50.144;8.428;2024-02-26T12:47:43;5.43;;;4.72;;
21420;SDS011;10871;50.144;8.428;2024-02-26T12:50:11;6.53;;;4.70;;
21420;SDS011;10871;50.144;8.428;2024-02-26T12:52:44;6.03;;;4.50;;
21420;SDS011;10871;50.144;8.428;2024-02-26T12:55:13;6.30;;;4.97;;
21420;SDS011;10871;50.144;8.428;2024-02-26T12:57:40;6.32;;;4.70;;
21420;SDS011;10871;50.144;8.428;2024-02-26T13:00:11;5.30;;;4.18;;
21420;SDS011;10871;50.144;8.428;2024-02-26T13:02:38;6.47;;;4.88;;
21420;SDS011;10871;50.144;8.428;2024-02-26T13:05:05;4.97;;;4.20;;
21420;SDS011;10871;50.144;8.428;2024-02-26T13:07:34;6.43;;;4.68;;
21420;SDS011;10871;50.144;8.428;2024-02-26T13:10:03;8.57;;;4.85;;
21420;SDS011;10871;50.144;8.428;2024-02-26T13:12:33;5.63;;;4.18;;
21420;SDS011;10871;50.144;8.428;2024-02-26T13:15:00;6.40;;;4.70;;
21420;SDS011;10871;50.144;8.428;2024-02-26T13:17:27;6.07;;;4.07;;
21420;SDS011;10871;50.144;8.428;2024-02-26T13:19:54;8.15;;;4.55;;
21420;SDS011;10871;50.144;8.428;2024-02-26T13:22:21;6.15;;;4.13;;
21420;SDS011;10871;50.144;8.428;2024-02-26T13:24:53;7.03;;;4.50;;
21420;SDS011;10871;50.144;8.428;2024-02-26T13:27:23;6.30;;;4.15;;
21420;SDS011;10871;50.144;8.428;2024-02-26T13:32:51;7.55;;;4.22;;
21420;SDS011;10871;50.144;8.428;2024-02-26T13:35:19;5.22;;;4.32;;
21420;SDS011;10871;50.144;8.428;2024-02-26T13:37:45;6.43;;;4.57;;
21420;SDS011;10871;50.144;8.428;2024-02-26T13:40:12;5.38;;;3.72;;
21420;SDS011;10871;50.144;8.428;2024-02-26T13:42:38;6.15;;;4.20;;
21420;SDS011;10871;50.144;8.428;2024-02-26T13:45:05;8.23;;;4.00;;
21420;SDS011;10871;50.144;8.428;2024-02-26T13:47:35;5.07;;;4.10;;
21420;SDS011;10871;50.144;8.428;2024-02-26T13:50:02;6.28;;;4.10;;
21420;SDS011;10871;50.144;8.428;2024-02-26T13:52:28;5.80;;;4.00;;
21420;SDS011;10871;50.144;8.428;2024-02-26T13:54:55;5.15;;;4.00;;
21420;SDS011;10871;50.144;8.428;2024-02-26T13:57:21;5.68;;;3.88;;
21420;SDS011;10871;50.144;8.428;2024-02-26T13:59:48;5.65;;;4.35;;
21420;SDS011;10871;50.144;8.428;2024-02-26T14:02:14;5.10;;;4.15;;
21420;SDS011;10871;50.144;8.428;2024-02-26T14:04:41;6.80;;;4.28;;
21420;SDS011;10871;50.144;8.428;2024-02-26T14:07:07;6.30;;;4.32;;
21420;SDS011;10871;50.144;8.428;2024-02-26T14:09:35;5.32;;;4.47;;
21420;SDS011;10871;50.144;8.428;2024-02-26T14:12:15;8.15;;;4.65;;
21420;SDS011;10871;50.144;8.428;2024-02-26T14:14:41;5.38;;;4.30;;
21420;SDS011;10871;50.144;8.428;2024-02-26T14:17:08;5.65;;;4.53;;
21420;SDS011;10871;50.144;8.428;2024-02-26T14:19:35;6.78;;;4.32;;
21420;SDS011;10871;50.144;8.428;2024-02-26T14:22:01;5.95;;;4.72;;
21420;SDS011;10871;50.144;8.428;2024-02-26T14:24:28;7.15;;;4.53;;
21420;SDS011;10871;50.144;8.428;2024-02-26T14:26:54;5.93;;;4.43;;
21420;SDS011;10871;50.144;8.428;2024-02-26T14:29:21;6.15;;;4.10;;
21420;SDS011;10871;50.144;8.428;2024-02-26T14:31:47;4.97;;;3.45;;
21420;SDS011;10871;50.144;8.428;2024-02-26T14:34:13;5.20;;;3.92;;
21420;SDS011;10871;50.144;8.428;2024-02-26T14:36:40;6.25;;;4.63;;
21420;SDS011;10871;50.144;8.428;2024-02-26T14:39:07;7.50;;;3.92;;
21420;SDS011;10871;50.144;8.428;2024-02-26T14:41:33;4.80;;;4.03;;
21420;SDS011;10871;50.144;8.428;2024-02-26T14:44:00;7.90;;;4.13;;
21420;SDS011;10871;50.144;8.428;2024-02-26T14:46:26;7.28;;;4.35;;
21420;SDS011;10871;50.144;8.428;2024-02-26T14:48:52;5.15;;;3.92;;
21420;SDS011;10871;50.144;8.428;2024-02-26T14:51:19;6.88;;;4.20;;
21420;SDS011;10871;50.144;8.428;2024-02-26T14:53:45;5.25;;;4.18;;
21420;SDS011;10871;50.144;8.428;2024-02-26T14:56:12;7.60;;;4.55;;
21420;SDS011;10871;50.144;8.428;2024-02-26T14:58:38;5.35;;;4.03;;
21420;SDS011;10871;50.144;8.428;2024-02-26T15:01:05;7.32;;;4.50;;
21420;SDS011;10871;50.144;8.428;2024-02-26T15:03:31;5.72;;;4.28;;